Time;durP1;ratioP1;P1;durP2;ratioP2;P2;SDS_P1;SDS_P2;PMS_P1;PMS_P2;Temp;Humidity;BMP_temperature;BMP_pressure;BME280_temperature;BME280_humidity;BME280_pressure;Samples;Min_cycle;Max_cycle;Signal;HPM_P1;HPM_P2
2023/06/30 00:00:48;;;;;;;10.15;3.50;;;14.70;99.90;;;;;;5078876;28;20226;-81
2023/06/30 00:03:15;;;;;;;13.07;3.72;;;14.60;99.90;;;;;;5081799;28;20135;-81
2023/06/30 00:05:41;;;;;;;9.32;3.45;;;14.50;99.90;;;;;;5084426;28;20048;-81
2023/06/30 00:08:08;;;;;;;11.60;3.25;;;14.50;99.90;;;;;;5055761;28;20056;-81
2023/06/30 00:10:35;;;;;;;12.27;3.80;;;14.40;99.90;;;;;;5083958;28;20043;-81
2023/06/30 00:13:00;;;;;;;11.32;3.45;;;14.30;99.90;;;;;;5059948;28;20479;-82
2023/06/30 00:15:26;;;;;;;9.07;3.13;;;14.30;99.90;;;;;;5054697;28;20051;-81
2023/06/30 00:17:52;;;;;;;8.45;3.42;;;14.50;99.90;;;;;;5082935;28;20411;-81
2023/06/30 00:20:18;;;;;;;9.35;3.75;;;14.90;99.90;;;;;;5063297;28;20044;-81
2023/06/30 00:22:44;;;;;;;8.55;3.30;;;14.10;99.90;;;;;;5070263;28;20055;-81
2023/06/30 00:25:10;;;;;;;9.68;3.08;;;14.90;99.90;;;;;;5096507;28;20044;-81
2023/06/30 00:27:35;;;;;;;10.43;3.25;;;14.00;99.90;;;;;;5079542;28;20039;-82
2023/06/30 00:30:01;;;;;;;10.80;3.25;;;14.00;99.90;;;;;;5080128;28;20407;-82
2023/06/30 00:32:32;;;;;;;12.68;3.33;;;13.50;99.90;;;;;;5084011;28;20109;-81
2023/06/30 00:34:58;;;;;;;16.25;3.22;;;14.00;99.90;;;;;;5078242;28;20048;-81
2023/06/30 00:37:26;;;;;;;11.60;3.30;;;14.40;99.90;;;;;;5074420;28;20052;-82
2023/06/30 00:39:51;;;;;;;11.32;3.08;;;15.00;99.90;;;;;;5077253;28;20552;-81
2023/06/30 00:42:17;;;;;;;14.35;3.58;;;15.10;99.90;;;;;;5064350;28;20047;-82
2023/06/30 00:44:43;;;;;;;9.43;2.78;;;13.90;99.90;;;;;;5071693;28;20554;-81
2023/06/30 00:47:09;;;;;;;8.13;3.17;;;14.00;99.90;;;;;;5079120;28;20041;-82
2023/06/30 00:49:35;;;;;;;10.50;2.65;;;14.00;99.90;;;;;;5072513;28;20032;-81
2023/06/30 00:52:01;;;;;;;9.82;3.25;;;14.00;99.90;;;;;;5074078;28;20040;-82
2023/06/30 00:54:27;;;;;;;9.88;3.08;;;14.00;99.90;;;;;;5086708;28;20123;-81
2023/06/30 00:56:53;;;;;;;10.63;3.05;;;14.00;99.90;;;;;;5069736;28;20040;-81
2023/06/30 00:59:18;;;;;;;8.48;2.63;;;13.90;99.90;;;;;;5061090;28;20546;-81
2023/06/30 01:02:21;;;;;;;11.23;2.83;;;13.90;99.90;;;;;;5070549;28;20435;-81
2023/06/30 01:04:54;;;;;;;9.80;2.65;;;13.80;99.90;;;;;;5077128;28;20063;-81
2023/06/30 01:07:23;;;;;;;9.25;2.80;;;13.80;99.90;;;;;;5072445;28;20055;-81
2023/06/30 01:09:54;;;;;;;7.97;2.90;;;14.10;99.90;;;;;;5078415;28;20064;-81
2023/06/30 01:12:20;;;;;;;9.20;3.00;;;13.70;99.90;;;;;;5072206;28;20610;-81
2023/06/30 01:14:47;;;;;;;7.78;2.67;;;13.60;99.90;;;;;;5081331;28;20150;-81
2023/06/30 01:17:15;;;;;;;6.47;2.67;;;13.60;99.90;;;;;;5078950;28;20048;-81
2023/06/30 01:19:44;;;;;;;8.30;2.70;;;14.90;99.90;;;;;;5066675;28;20058;-81
2023/06/30 01:22:29;;;;;;;9.98;3.17;;;13.50;99.90;;;;;;5052287;28;20053;-81
2023/06/30 01:25:03;;;;;;;9.15;2.53;;;13.50;99.90;;;;;;5070251;28;20633;-81
2023/06/30 01:27:30;;;;;;;6.57;2.60;;;13.50;99.90;;;;;;5074352;28;20029;-81
2023/06/30 01:29:55;;;;;;;7.93;2.28;;;13.50;99.90;;;;;;5075492;28;20036;-81
2023/06/30 01:32:21;;;;;;;8.23;2.80;;;13.90;99.90;;;;;;5070209;28;20040;-82
2023/06/30 01:34:47;;;;;;;8.20;2.85;;;13.70;99.90;;;;;;5077380;28;20048;-81
2023/06/30 01:37:14;;;;;;;8.50;2.80;;;13.40;99.90;;;;;;5071467;28;20106;-81
2023/06/30 01:39:42;;;;;;;11.85;2.95;;;14.20;99.90;;;;;;5078610;28;20048;-81
2023/06/30 01:42:09;;;;;;;6.55;3.08;;;13.40;99.90;;;;;;5078719;28;20044;-81
2023/06/30 01:44:35;;;;;;;11.13;2.60;;;13.40;99.90;;;;;;5075592;28;20086;-81
2023/06/30 01:47:02;;;;;;;8.68;3.20;;;13.30;99.90;;;;;;5077014;28;20040;-82
2023/06/30 01:49:28;;;;;;;10.25;2.60;;;13.40;99.90;;;;;;5079863;28;20052;-82
2023/06/30 01:51:54;;;;;;;10.23;2.65;;;13.30;99.90;;;;;;5075611;28;20029;-82
2023/06/30 01:54:19;;;;;;;8.63;2.50;;;13.30;99.90;;;;;;5069408;28;20036;-82
2023/06/30 01:56:48;;;;;;;12.88;2.97;;;13.30;99.90;;;;;;5077277;28;20079;-82
2023/06/30 01:59:14;;;;;;;8.65;2.72;;;13.20;99.90;;;;;;5069873;28;20044;-82
2023/06/30 02:01:40;;;;;;;9.70;2.50;;;13.20;99.90;;;;;;5081408;28;20051;-82
2023/06/30 02:04:05;;;;;;;7.97;2.45;;;13.70;99.90;;;;;;5081569;28;20548;-82
2023/06/30 02:06:31;;;;;;;13.80;2.55;;;13.20;99.90;;;;;;5090637;28;20044;-82
2023/06/30 02:08:57;;;;;;;11.07;2.85;;;13.10;99.90;;;;;;5087866;28;20044;-81
2023/06/30 02:11:22;;;;;;;8.27;3.40;;;13.20;99.90;;;;;;5074064;28;20396;-81
2023/06/30 02:13:48;;;;;;;12.23;2.75;;;13.20;99.90;;;;;;5078798;28;20045;-82
2023/06/30 02:16:14;;;;;;;12.98;2.80;;;13.30;99.90;;;;;;5078516;28;20069;-82
2023/06/30 02:18:39;;;;;;;13.13;3.35;;;13.20;99.90;;;;;;5067769;28;20037;-82
2023/06/30 02:21:05;;;;;;;10.75;3.25;;;14.40;99.90;;;;;;5056793;28;20040;-82
2023/06/30 02:23:32;;;;;;;9.80;2.55;;;13.20;99.90;;;;;;5047548;28;20077;-82
2023/06/30 02:25:58;;;;;;;6.65;2.40;;;13.10;99.90;;;;;;5062784;28;20189;-81
2023/06/30 02:28:24;;;;;;;9.30;2.13;;;13.10;99.90;;;;;;5078192;28;20126;-82
2023/06/30 02:30:49;;;;;;;8.68;2.75;;;13.10;99.90;;;;;;5083527;28;20441;-81
2023/06/30 02:33:16;;;;;;;7.10;2.35;;;13.10;99.90;;;;;;5078190;28;20044;-82
2023/06/30 02:35:41;;;;;;;6.93;2.03;;;13.10;99.90;;;;;;5051306;28;20032;-81
2023/06/30 02:38:07;;;;;;;7.20;2.17;;;13.10;99.90;;;;;;5078395;28;20526;-81
2023/06/30 02:40:33;;;;;;;8.75;2.50;;;13.10;99.90;;;;;;5080955;28;20178;-81
2023/06/30 02:42:59;;;;;;;7.30;2.65;;;13.10;99.90;;;;;;5069112;28;20094;-82
2023/06/30 02:45:25;;;;;;;7.95;2.72;;;13.20;99.90;;;;;;5085667;28;20028;-82
2023/06/30 02:47:50;;;;;;;7.57;2.80;;;13.20;99.90;;;;;;5078334;28;20040;-82
2023/06/30 02:50:17;;;;;;;10.98;2.40;;;13.30;99.90;;;;;;5057125;28;20565;-81
2023/06/30 02:52:43;;;;;;;6.88;2.47;;;14.60;99.90;;;;;;5076138;28;20562;-82
2023/06/30 02:55:09;;;;;;;10.30;2.88;;;13.10;99.90;;;;;;5077441;28;20824;-82
2023/06/30 02:57:34;;;;;;;8.18;2.35;;;13.10;99.90;;;;;;5082667;28;20124;-82
2023/06/30 03:00:00;;;;;;;6.38;2.30;;;13.10;99.90;;;;;;5084581;28;20040;-81
2023/06/30 03:02:26;;;;;;;6.85;2.58;;;13.90;99.90;;;;;;5083187;28;20078;-82
2023/06/30 03:04:55;;;;;;;10.00;2.60;;;14.20;99.90;;;;;;5081060;28;20036;-82
2023/06/30 03:07:21;;;;;;;8.38;2.60;;;13.70;99.90;;;;;;5068847;28;20036;-81
2023/06/30 03:09:46;;;;;;;10.55;3.03;;;13.00;99.90;;;;;;5080813;28;20099;-82
2023/06/30 03:12:12;;;;;;;6.97;2.40;;;13.00;99.90;;;;;;5081414;28;20043;-81
2023/06/30 03:14:38;;;;;;;8.32;2.65;;;12.90;99.90;;;;;;5070793;28;20058;-81
2023/06/30 03:17:03;;;;;;;5.53;2.00;;;14.30;99.90;;;;;;5083425;28;20115;-81
2023/06/30 03:19:29;;;;;;;9.43;2.58;;;12.90;99.90;;;;;;5074704;28;20048;-81
2023/06/30 03:21:55;;;;;;;7.35;2.42;;;12.90;99.90;;;;;;5078856;28;20479;-82
2023/06/30 03:24:21;;;;;;;6.30;2.83;;;12.90;99.90;;;;;;5077028;28;20052;-82
2023/06/30 03:26:47;;;;;;;9.73;2.70;;;13.00;99.90;;;;;;5080308;28;20090;-82
2023/06/30 03:29:13;;;;;;;9.85;2.63;;;13.10;99.90;;;;;;5086037;28;20051;-81
2023/06/30 03:31:38;;;;;;;5.65;2.53;;;12.80;99.90;;;;;;5081191;28;20070;-81
2023/06/30 03:34:04;;;;;;;6.25;2.10;;;12.80;99.90;;;;;;5076223;28;20085;-81
2023/06/30 03:36:30;;;;;;;3.55;1.80;;;13.10;99.90;;;;;;5073566;28;20510;-81
2023/06/30 03:38:56;;;;;;;12.68;2.33;;;12.80;99.90;;;;;;5077970;28;20063;-81
2023/06/30 03:41:21;;;;;;;8.30;2.53;;;12.90;99.90;;;;;;5080215;28;20045;-81
2023/06/30 03:43:47;;;;;;;7.18;2.45;;;13.80;99.90;;;;;;5076732;28;20529;-81
2023/06/30 03:46:15;;;;;;;5.55;2.33;;;12.80;99.90;;;;;;5085401;28;20036;-81
2023/06/30 03:48:41;;;;;;;10.13;2.72;;;12.80;99.90;;;;;;5083668;28;20055;-81
2023/06/30 03:51:06;;;;;;;8.07;2.00;;;12.80;99.90;;;;;;5086641;28;20032;-82
2023/06/30 03:53:32;;;;;;;5.75;2.42;;;12.80;99.90;;;;;;5079617;28;20043;-82
2023/06/30 03:55:58;;;;;;;8.10;2.38;;;12.80;99.90;;;;;;5073827;28;20036;-82
2023/06/30 03:58:24;;;;;;;4.78;1.83;;;12.80;99.90;;;;;;5054283;28;20120;-82
2023/06/30 04:00:49;;;;;;;12.02;2.45;;;14.30;99.90;;;;;;5079047;28;20115;-82
2023/06/30 04:03:15;;;;;;;6.72;2.13;;;12.80;99.90;;;;;;5079615;28;20124;-82
2023/06/30 04:05:41;;;;;;;4.22;2.22;;;12.80;99.90;;;;;;5078965;28;20033;-82
2023/06/30 04:08:07;;;;;;;6.13;2.58;;;12.80;99.90;;;;;;5081571;28;20040;-82
2023/06/30 04:10:33;;;;;;;8.27;2.15;;;12.80;99.90;;;;;;5063409;28;20110;-82
2023/06/30 04:12:58;;;;;;;8.45;2.17;;;12.90;99.90;;;;;;5079810;28;20037;-82
2023/06/30 04:15:24;;;;;;;8.50;2.20;;;12.80;99.90;;;;;;5084514;28;20117;-82
2023/06/30 04:17:50;;;;;;;7.18;2.53;;;12.80;99.90;;;;;;5059380;28;20040;-82
2023/06/30 04:20:16;;;;;;;7.38;2.50;;;12.80;99.90;;;;;;5059840;28;20043;-81
2023/06/30 04:22:41;;;;;;;7.78;2.35;;;12.80;99.90;;;;;;5070844;28;20040;-81
2023/06/30 04:25:07;;;;;;;5.70;2.13;;;13.10;99.90;;;;;;5083225;28;20046;-82
2023/06/30 04:27:33;;;;;;;4.25;2.08;;;12.80;99.90;;;;;;5063506;28;20063;-82
2023/06/30 04:29:58;;;;;;;6.88;2.75;;;12.80;99.90;;;;;;5074710;28;20032;-82
2023/06/30 04:32:24;;;;;;;8.98;2.90;;;12.90;99.90;;;;;;5080545;28;20415;-82
2023/06/30 04:34:50;;;;;;;5.80;2.97;;;12.80;99.90;;;;;;5076625;28;20556;-82
2023/06/30 04:37:15;;;;;;;5.93;2.33;;;12.80;99.90;;;;;;5084825;28;20052;-82
2023/06/30 04:39:42;;;;;;;4.97;2.20;;;12.90;99.90;;;;;;5072206;28;20049;-82
2023/06/30 04:42:08;;;;;;;11.18;2.63;;;13.70;99.90;;;;;;5077692;28;20515;-81
2023/06/30 04:44:34;;;;;;;6.80;2.70;;;12.90;99.90;;;;;;5079713;28;20377;-80
2023/06/30 04:47:00;;;;;;;7.57;2.40;;;12.90;99.90;;;;;;5079300;28;20116;-80
2023/06/30 04:49:26;;;;;;;5.82;2.95;;;13.90;99.90;;;;;;5076117;28;20090;-82
2023/06/30 04:51:51;;;;;;;7.35;2.42;;;13.00;99.90;;;;;;5081500;28;20070;-82
2023/06/30 04:54:19;;;;;;;10.10;2.58;;;13.00;99.90;;;;;;5079496;28;20530;-82
2023/06/30 04:56:45;;;;;;;10.35;3.15;;;14.30;99.90;;;;;;5062659;28;20483;-82
2023/06/30 04:59:10;;;;;;;11.00;3.08;;;13.10;99.90;;;;;;5074711;28;20068;-82
2023/06/30 05:01:36;;;;;;;11.45;3.47;;;13.50;99.90;;;;;;5070912;28;20044;-81
2023/06/30 05:04:02;;;;;;;7.47;3.00;;;14.50;99.90;;;;;;5072333;28;20037;-81
2023/06/30 05:06:27;;;;;;;8.23;2.60;;;13.00;99.90;;;;;;5070606;28;20084;-81
2023/06/30 05:08:53;;;;;;;9.57;2.67;;;13.90;99.90;;;;;;5070161;28;20044;-81
2023/06/30 05:11:18;;;;;;;9.13;3.40;;;14.30;99.90;;;;;;5070550;28;20071;-81
2023/06/30 05:13:44;;;;;;;11.25;2.85;;;13.20;99.90;;;;;;5077694;28;20445;-82
2023/06/30 05:16:13;;;;;;;8.15;3.25;;;13.30;99.90;;;;;;5070074;28;20050;-81
2023/06/30 05:18:39;;;;;;;6.03;2.90;;;14.80;99.90;;;;;;5069785;28;20087;-81
2023/06/30 05:21:06;;;;;;;10.15;2.90;;;13.40;99.90;;;;;;5070419;28;20064;-82
2023/06/30 05:23:32;;;;;;;7.45;2.60;;;13.50;99.90;;;;;;5084050;28;20452;-81
2023/06/30 05:25:58;;;;;;;7.85;3.00;;;13.80;99.90;;;;;;5076534;28;20072;-81
2023/06/30 05:28:24;;;;;;;7.97;2.90;;;14.90;99.90;;;;;;5076051;28;20045;-81
2023/06/30 05:30:50;;;;;;;8.07;2.92;;;13.70;99.90;;;;;;5082148;28;20385;-82
2023/06/30 05:33:15;;;;;;;10.98;3.53;;;13.70;99.90;;;;;;5087175;28;20043;-82
2023/06/30 05:35:41;;;;;;;12.43;3.60;;;13.80;99.90;;;;;;5080094;28;20044;-81
2023/06/30 05:38:07;;;;;;;8.82;2.60;;;13.80;99.90;;;;;;5079704;28;20040;-81
2023/06/30 05:40:32;;;;;;;9.82;4.65;;;14.30;99.90;;;;;;5080616;28;20056;-81
2023/06/30 05:42:58;;;;;;;5.13;3.28;;;14.60;99.90;;;;;;5083580;28;20036;-82
2023/06/30 05:45:25;;;;;;;8.60;3.33;;;13.90;99.90;;;;;;5078910;28;20028;-82
2023/06/30 05:47:51;;;;;;;6.65;2.60;;;13.90;99.90;;;;;;5070473;28;20174;-82
2023/06/30 05:50:17;;;;;;;9.05;2.58;;;14.00;99.90;;;;;;5057509;28;20081;-82
2023/06/30 05:52:43;;;;;;;13.68;3.05;;;14.00;99.90;;;;;;5061073;28;20251;-82
2023/06/30 05:55:08;;;;;;;8.00;3.20;;;14.10;99.90;;;;;;5081528;28;20173;-82
2023/06/30 05:57:34;;;;;;;10.45;2.70;;;15.20;99.90;;;;;;5052897;28;20431;-82
2023/06/30 06:00:04;;;;;;;4.35;2.40;;;14.20;99.90;;;;;;5074050;28;20123;-82
2023/06/30 06:02:30;;;;;;;5.65;2.15;;;14.30;99.90;;;;;;5037054;28;20519;-82
2023/06/30 06:04:56;;;;;;;11.63;2.70;;;14.40;99.90;;;;;;5080923;28;20055;-82
2023/06/30 06:07:21;;;;;;;8.20;2.30;;;14.50;99.90;;;;;;5078437;28;20453;-82
2023/06/30 06:09:47;;;;;;;6.80;2.92;;;14.60;99.90;;;;;;5077918;28;20040;-81
2023/06/30 06:12:14;;;;;;;3.72;1.98;;;14.60;99.90;;;;;;5063470;28;20490;-82
2023/06/30 06:14:41;;;;;;;4.93;1.42;;;14.70;99.90;;;;;;5070277;28;20399;-82
2023/06/30 06:17:06;;;;;;;5.50;1.67;;;14.80;99.90;;;;;;5058365;28;20051;-81
2023/06/30 06:19:32;;;;;;;11.43;2.05;;;14.90;99.90;;;;;;5081088;28;20043;-82
2023/06/30 06:21:58;;;;;;;4.50;1.38;;;14.90;99.90;;;;;;5079260;28;20132;-81
2023/06/30 06:24:24;;;;;;;9.82;1.58;;;15.00;99.90;;;;;;5081392;28;20035;-81
2023/06/30 06:26:49;;;;;;;8.45;1.65;;;15.10;99.90;;;;;;5081081;28;20755;-80
2023/06/30 06:29:21;;;;;;;3.70;1.45;;;15.20;99.90;;;;;;5074905;28;20484;-80
2023/06/30 06:31:50;;;;;;;5.85;1.17;;;16.90;99.90;;;;;;5071261;28;20047;-80
2023/06/30 06:34:17;;;;;;;9.00;1.67;;;15.40;99.90;;;;;;5076450;28;20036;-80
2023/06/30 06:36:42;;;;;;;6.65;1.27;;;15.50;99.90;;;;;;5076696;28;20056;-81
2023/06/30 06:39:08;;;;;;;7.80;1.80;;;16.20;99.90;;;;;;5074916;28;20056;-81
2023/06/30 06:41:34;;;;;;;6.10;1.30;;;15.60;99.90;;;;;;5076254;28;20062;-81
2023/06/30 06:43:59;;;;;;;3.63;0.75;;;15.70;99.90;;;;;;5079775;28;20056;-81
2023/06/30 06:46:25;;;;;;;7.57;1.45;;;15.70;99.90;;;;;;5076119;28;20032;-81
2023/06/30 06:48:51;;;;;;;4.13;1.15;;;15.80;99.90;;;;;;5077536;28;20041;-80
2023/06/30 06:51:17;;;;;;;4.78;1.20;;;16.80;99.90;;;;;;5079741;28;20611;-80
2023/06/30 06:53:43;;;;;;;4.97;1.30;;;15.90;99.90;;;;;;5078484;28;20126;-80
2023/06/30 06:56:08;;;;;;;6.43;1.40;;;16.00;99.90;;;;;;5068921;28;20048;-81
2023/06/30 06:58:35;;;;;;;6.80;1.50;;;16.00;99.90;;;;;;5068502;28;20032;-81
2023/06/30 07:01:01;;;;;;;11.80;1.70;;;16.10;99.90;;;;;;5068636;28;20046;-80
2023/06/30 07:03:27;;;;;;;5.00;1.30;;;16.40;99.90;;;;;;5068361;28;20119;-81
2023/06/30 07:05:55;;;;;;;7.63;1.13;;;16.10;99.90;;;;;;5069034;28;20136;-80
2023/06/30 07:08:20;;;;;;;10.18;1.30;;;16.20;99.90;;;;;;5072764;28;20045;-81
2023/06/30 07:10:47;;;;;;;8.45;1.15;;;16.20;99.90;;;;;;5077411;28;20075;-81
2023/06/30 07:13:19;;;;;;;7.80;1.35;;;16.40;99.90;;;;;;5081354;28;20052;-80
2023/06/30 07:15:47;;;;;;;4.57;1.05;;;16.20;99.90;;;;;;5068914;28;20483;-82
2023/06/30 07:18:13;;;;;;;5.82;1.33;;;16.60;99.90;;;;;;5068418;28;20040;-82
2023/06/30 07:20:39;;;;;;;7.05;0.90;;;16.30;99.90;;;;;;4724663;28;9999747;-79
2023/06/30 07:23:05;;;;;;;4.38;1.10;;;16.30;99.90;;;;;;5071865;28;20090;-80
2023/06/30 07:25:30;;;;;;;9.65;1.23;;;16.30;99.90;;;;;;5081688;28;20376;-81
2023/06/30 07:27:57;;;;;;;9.73;1.10;;;17.10;99.90;;;;;;5054624;28;20055;-82
2023/06/30 07:30:25;;;;;;;4.13;1.05;;;16.40;99.90;;;;;;5065575;28;20049;-82
2023/06/30 07:32:51;;;;;;;6.13;1.42;;;16.30;99.90;;;;;;5068557;28;20051;-82
2023/06/30 07:35:17;;;;;;;3.38;0.82;;;16.30;99.90;;;;;;5060967;28;20041;-81
2023/06/30 07:37:47;;;;;;;3.28;0.73;;;16.30;99.90;;;;;;5067010;28;20118;-81
2023/06/30 07:40:13;;;;;;;4.63;0.90;;;16.40;99.90;;;;;;5075756;28;20052;-78
2023/06/30 07:42:40;;;;;;;6.15;1.70;;;16.40;99.90;;;;;;5075416;28;20054;-79
2023/06/30 07:45:10;;;;;;;3.00;0.77;;;16.40;99.90;;;;;;5079169;28;20124;-79
2023/06/30 07:47:37;;;;;;;6.68;1.15;;;16.50;99.90;;;;;;5077471;28;20567;-86
2023/06/30 07:50:11;;;;;;;4.65;0.70;;;16.40;99.90;;;;;;5072993;28;20116;-86
2023/06/30 07:52:41;;;;;;;3.90;0.80;;;16.60;99.90;;;;;;5058245;28;20052;-85
2023/06/30 07:55:07;;;;;;;5.78;1.63;;;16.60;99.90;;;;;;5070771;28;20068;-80
2023/06/30 07:57:32;;;;;;;7.25;0.90;;;16.70;99.90;;;;;;5050933;28;20714;-80
2023/06/30 07:59:58;;;;;;;2.83;0.70;;;16.80;99.90;;;;;;5080205;28;20132;-80
2023/06/30 08:02:23;;;;;;;4.72;1.00;;;17.00;99.90;;;;;;5087383;28;20040;-85
2023/06/30 08:04:50;;;;;;;5.55;0.98;;;17.10;99.90;;;;;;5072292;28;20033;-84
2023/06/30 08:07:16;;;;;;;8.60;0.80;;;17.10;99.90;;;;;;5086204;28;20047;-85
2023/06/30 08:09:41;;;;;;;6.47;1.00;;;17.00;99.90;;;;;;5071521;28;20044;-83
2023/06/30 08:12:08;;;;;;;7.35;0.82;;;17.00;99.90;;;;;;5078044;28;20128;-86
2023/06/30 08:14:35;;;;;;;5.00;0.70;;;17.00;99.90;;;;;;5078935;28;20123;-83
2023/06/30 08:17:02;;;;;;;4.72;0.80;;;17.10;99.90;;;;;;5080591;28;20048;-83
2023/06/30 08:19:27;;;;;;;1.98;0.40;;;17.30;99.90;;;;;;5082920;28;20089;-83
2023/06/30 08:21:53;;;;;;;4.65;0.65;;;17.20;99.90;;;;;;5077436;28;20032;-86
2023/06/30 08:24:19;;;;;;;3.13;0.43;;;17.70;99.90;;;;;;5075211;28;20032;-86
2023/06/30 08:26:44;;;;;;;3.40;0.68;;;17.20;99.90;;;;;;5074190;28;20532;-84
2023/06/30 08:29:10;;;;;;;4.45;0.40;;;17.00;99.90;;;;;;5078940;28;20119;-85
2023/06/30 08:31:36;;;;;;;1.90;0.60;;;17.30;99.90;;;;;;5072221;28;20068;-85
2023/06/30 08:34:02;;;;;;;3.50;0.60;;;17.30;99.90;;;;;;5078654;28;20075;-85
2023/06/30 08:36:28;;;;;;;1.65;0.55;;;17.40;99.90;;;;;;5072484;28;20652;-83
2023/06/30 08:38:53;;;;;;;5.82;0.88;;;17.40;99.90;;;;;;5079946;28;20048;-84
2023/06/30 08:41:19;;;;;;;3.53;0.55;;;17.50;99.90;;;;;;5056886;28;20032;-82
2023/06/30 08:43:46;;;;;;;1.45;0.80;;;17.60;99.90;;;;;;5063249;28;20469;-78
2023/06/30 08:46:14;;;;;;;4.80;0.70;;;17.70;99.90;;;;;;5081919;28;20063;-78
2023/06/30 08:48:40;;;;;;;5.15;0.77;;;18.00;99.90;;;;;;5082167;28;20511;-82
2023/06/30 08:51:06;;;;;;;3.03;0.43;;;18.10;99.90;;;;;;5088995;28;20126;-80
2023/06/30 08:53:34;;;;;;;3.72;0.82;;;17.80;99.90;;;;;;5078710;28;20036;-81
2023/06/30 08:55:59;;;;;;;3.97;1.08;;;18.70;99.90;;;;;;5064854;28;20036;-81
2023/06/30 08:58:27;;;;;;;8.57;1.00;;;17.80;99.90;;;;;;5069299;28;20112;-79
2023/06/30 09:00:54;;;;;;;4.28;0.60;;;17.80;99.90;;;;;;5081618;28;20051;-80
2023/06/30 09:03:21;;;;;;;3.63;0.80;;;17.90;99.90;;;;;;5046057;28;20044;-83
2023/06/30 09:05:47;;;;;;;1.63;0.82;;;17.80;99.90;;;;;;5078059;28;20037;-79
2023/06/30 09:08:21;;;;;;;5.97;1.00;;;17.90;99.90;;;;;;5055083;28;20438;-80
2023/06/30 09:10:47;;;;;;;;;;;17.90;99.90;;;;;;5082931;28;20055;-83
2023/06/30 09:13:16;;;;;;;5.75;0.93;;;17.90;99.90;;;;;;5071607;28;19924;-84
2023/06/30 09:15:43;;;;;;;4.28;1.05;;;18.00;99.90;;;;;;5061403;28;20060;-78
2023/06/30 09:18:09;;;;;;;3.55;0.63;;;18.10;99.90;;;;;;5075233;28;20102;-79
2023/06/30 09:20:36;;;;;;;2.85;0.70;;;18.10;99.90;;;;;;5076892;28;20039;-77
2023/06/30 09:23:04;;;;;;;3.70;0.43;;;18.00;99.90;;;;;;5081166;28;20039;-77
2023/06/30 09:25:39;;;;;;;5.43;1.08;;;18.00;99.90;;;;;;5079301;28;20040;-85
2023/06/30 09:28:14;;;;;;;3.50;0.80;;;18.00;99.90;;;;;;5077486;28;20062;-85
2023/06/30 09:30:44;;;;;;;5.10;0.90;;;18.10;99.90;;;;;;5077802;28;20052;-85
2023/06/30 09:33:13;;;;;;;2.97;0.88;;;18.20;99.90;;;;;;5079987;28;20075;-86
2023/06/30 09:35:43;;;;;;;5.13;0.90;;;18.20;99.90;;;;;;5041001;28;20165;-85
2023/06/30 09:38:13;;;;;;;2.25;0.60;;;18.30;99.90;;;;;;5083651;28;20119;-85
2023/06/30 09:40:42;;;;;;;4.53;1.33;;;18.50;99.90;;;;;;5076609;28;20095;-82
2023/06/30 09:43:08;;;;;;;4.20;1.10;;;18.40;99.90;;;;;;5078999;28;20571;-83
2023/06/30 09:45:34;;;;;;;4.75;0.55;;;18.40;99.90;;;;;;5053350;28;20042;-87
2023/06/30 09:48:00;;;;;;;1.85;0.77;;;18.40;99.90;;;;;;5072545;28;20685;-84
2023/06/30 09:50:29;;;;;;;4.82;0.75;;;18.70;99.90;;;;;;5076395;28;20071;-85
2023/06/30 09:52:55;;;;;;;4.75;0.85;;;18.40;99.90;;;;;;5076579;28;20040;-86
2023/06/30 09:55:21;;;;;;;4.85;1.02;;;18.30;99.90;;;;;;5068740;28;20487;-85
2023/06/30 09:57:46;;;;;;;2.95;1.05;;;18.30;99.90;;;;;;5076782;28;20039;-77
2023/06/30 10:00:14;;;;;;;2.33;0.82;;;18.90;99.90;;;;;;5073448;28;20406;-84
2023/06/30 10:02:40;;;;;;;5.90;1.05;;;18.40;99.90;;;;;;5072857;28;20041;-83
2023/06/30 10:05:09;;;;;;;3.70;0.73;;;18.60;99.90;;;;;;5070336;28;20078;-83
2023/06/30 10:07:35;;;;;;;5.10;0.77;;;18.60;99.90;;;;;;5073652;28;20119;-84
2023/06/30 10:10:02;;;;;;;7.22;1.15;;;19.50;99.90;;;;;;5073704;28;20123;-82
2023/06/30 10:12:33;;;;;;;3.17;0.47;;;18.80;99.90;;;;;;5074568;28;20613;-77
2023/06/30 10:15:00;;;;;;;2.88;0.50;;;18.90;99.90;;;;;;5076128;28;20044;-83
2023/06/30 10:17:27;;;;;;;2.65;0.70;;;19.00;99.90;;;;;;5073833;28;20036;-80
2023/06/30 10:19:53;;;;;;;2.92;0.60;;;19.00;99.90;;;;;;5071753;28;20040;-80
2023/06/30 10:22:19;;;;;;;3.72;0.93;;;19.10;99.90;;;;;;5070181;28;20044;-81
2023/06/30 10:24:47;;;;;;;1.85;0.50;;;19.20;99.90;;;;;;5074433;28;20048;-79
2023/06/30 10:27:18;;;;;;;5.75;1.42;;;19.20;99.90;;;;;;5086175;28;20044;-76
2023/06/30 10:29:47;;;;;;;2.92;0.73;;;19.30;99.90;;;;;;5084385;28;20108;-80
2023/06/30 10:32:12;;;;;;;2.70;0.57;;;19.40;99.90;;;;;;5063462;28;20043;-78
2023/06/30 10:34:39;;;;;;;5.25;1.27;;;19.40;99.90;;;;;;5069113;28;20051;-76
2023/06/30 10:37:05;;;;;;;2.33;0.70;;;19.50;99.90;;;;;;5067441;28;20052;-81
2023/06/30 10:39:31;;;;;;;8.60;0.80;;;19.60;99.90;;;;;;5076015;28;20460;-77
2023/06/30 10:41:57;;;;;;;2.22;0.73;;;19.60;99.60;;;;;;5074890;28;20040;-77
2023/06/30 10:44:37;;;;;;;1.20;0.50;;;19.60;99.10;;;;;;5079035;28;20076;-77
2023/06/30 10:47:03;;;;;;;2.97;0.60;;;19.60;98.80;;;;;;5069311;28;20091;-80
2023/06/30 10:49:33;;;;;;;5.03;0.63;;;19.60;99.10;;;;;;4720503;28;10000723;-79
2023/06/30 10:52:10;;;;;;;2.85;0.60;;;19.60;98.60;;;;;;5074871;28;20047;-83
2023/06/30 10:54:48;;;;;;;3.78;0.68;;;19.70;98.80;;;;;;5073894;28;20055;-81
2023/06/30 10:57:18;;;;;;;7.22;1.20;;;19.90;99.70;;;;;;5074002;28;20053;-79
2023/06/30 10:59:46;;;;;;;3.97;1.20;;;20.00;99.90;;;;;;5081638;28;20494;-76
2023/06/30 11:02:13;;;;;;;3.55;0.80;;;20.10;99.90;;;;;;5078317;28;20086;-77
2023/06/30 11:04:41;;;;;;;1.50;0.80;;;20.20;99.70;;;;;;5062438;28;20098;-79
2023/06/30 11:07:07;;;;;;;3.15;0.95;;;20.00;98.70;;;;;;5076268;28;20044;-78
2023/06/30 11:09:48;;;;;;;3.33;1.23;;;19.90;98.80;;;;;;5069428;28;20067;-77
2023/06/30 11:12:25;;;;;;;4.60;1.05;;;19.70;99.20;;;;;;5050891;28;20052;-76
2023/06/30 11:14:58;;;;;;;6.10;1.48;;;19.60;99.50;;;;;;5049024;28;20049;-80
2023/06/30 11:17:48;;;;;;;3.33;0.77;;;19.60;99.90;;;;;;5076492;28;20048;-77
2023/06/30 11:20:14;;;;;;;4.93;1.10;;;19.40;99.70;;;;;;5071370;28;20543;-79
2023/06/30 11:22:40;;;;;;;5.05;1.17;;;19.70;99.40;;;;;;5065053;28;20077;-76
2023/06/30 11:25:11;;;;;;;4.70;0.98;;;19.70;99.60;;;;;;5081992;28;20036;-75
2023/06/30 11:27:40;;;;;;;3.22;0.65;;;19.70;99.10;;;;;;5066655;28;20217;-76
2023/06/30 11:30:09;;;;;;;5.63;1.00;;;19.60;99.40;;;;;;5071115;28;20051;-83
2023/06/30 11:32:36;;;;;;;7.13;1.10;;;19.50;99.50;;;;;;5075726;28;20059;-82
2023/06/30 11:35:07;;;;;;;3.25;0.75;;;19.60;99.90;;;;;;5055693;28;20052;-80
2023/06/30 11:37:36;;;;;;;5.40;1.10;;;19.50;99.90;;;;;;5075388;28;20657;-75
2023/06/30 11:40:04;;;;;;;5.88;1.40;;;19.50;99.80;;;;;;5049245;28;20055;-83
2023/06/30 11:42:30;;;;;;;2.22;0.90;;;19.60;99.80;;;;;;5048520;28;20481;-81
2023/06/30 11:44:56;;;;;;;2.88;0.77;;;20.10;99.80;;;;;;5060628;28;20052;-82
2023/06/30 11:47:21;;;;;;;2.22;1.00;;;19.90;99.60;;;;;;5056972;28;20501;-83
2023/06/30 11:49:48;;;;;;;2.60;1.13;;;20.20;99.50;;;;;;5056697;28;20044;-82
2023/06/30 11:52:15;;;;;;;3.78;1.20;;;20.20;98.60;;;;;;5057108;28;20060;-82
2023/06/30 11:54:41;;;;;;;2.97;0.90;;;20.40;97.50;;;;;;5049422;28;20552;-81
2023/06/30 11:57:08;;;;;;;2.00;0.90;;;20.50;97.30;;;;;;5055043;28;20037;-82
2023/06/30 11:59:34;;;;;;;4.13;1.25;;;20.70;97.90;;;;;;5054151;28;20041;-79
2023/06/30 12:02:02;;;;;;;2.60;0.85;;;20.70;97.30;;;;;;5043657;28;20133;-81
2023/06/30 12:04:33;;;;;;;2.33;0.60;;;20.70;96.90;;;;;;5070174;28;20095;-80
2023/06/30 12:06:59;;;;;;;6.25;1.00;;;20.50;96.80;;;;;;5043251;28;20032;-81
2023/06/30 12:09:24;;;;;;;3.17;1.10;;;20.60;97.60;;;;;;5054643;28;20052;-78
2023/06/30 12:11:50;;;;;;;14.02;1.10;;;20.60;97.70;;;;;;5045667;28;20033;-76
2023/06/30 12:14:18;;;;;;;1.23;0.52;;;20.70;97.20;;;;;;5062956;28;20045;-76
2023/06/30 12:16:48;;;;;;;2.97;0.90;;;20.90;96.90;;;;;;5047757;28;20052;-77
2023/06/30 12:19:15;;;;;;;5.10;0.80;;;21.00;96.80;;;;;;5059173;28;20059;-76
2023/06/30 12:21:54;;;;;;;4.43;0.93;;;21.00;96.60;;;;;;5057890;28;20051;-78
2023/06/30 12:24:21;;;;;;;2.78;0.60;;;20.90;96.80;;;;;;5062379;28;20036;-76
2023/06/30 12:26:48;;;;;;;5.35;0.77;;;20.90;96.30;;;;;;5032446;28;20478;-80
2023/06/30 12:29:16;;;;;;;6.95;1.40;;;20.90;96.70;;;;;;5058497;28;20048;-77
2023/06/30 12:31:42;;;;;;;3.65;1.13;;;21.10;96.60;;;;;;5055215;28;20120;-86
2023/06/30 12:34:08;;;;;;;4.13;1.10;;;21.10;96.50;;;;;;5056252;28;20120;-76
2023/06/30 12:36:33;;;;;;;3.50;1.27;;;21.00;96.40;;;;;;5045086;28;20411;-78
2023/06/30 12:38:59;;;;;;;4.10;1.00;;;20.90;96.70;;;;;;5058063;28;20480;-81
2023/06/30 12:41:25;;;;;;;3.42;0.80;;;20.80;96.40;;;;;;5059574;28;20665;-76
2023/06/30 12:43:50;;;;;;;1.42;0.43;;;20.80;96.50;;;;;;5082216;28;20028;-76